Time;durP1;ratioP1;P1;durP2;ratioP2;P2;SDS_P1;SDS_P2;PMS_P1;PMS_P2;Temp;Humidity;BMP_temperature;BMP_pressure;BME280_temperature;BME280_humidity;BME280_pressure;Samples;Min_cycle;Max_cycle;Signal;HPM_P1;HPM_P2
2023/10/01 00:00:15;;;;;;;20.45;8.05;;;;;;;-142.57;62.20;59879.66;5050517;28;20022;-83
2023/10/01 00:02:41;;;;;;;17.13;8.10;;;;;;;-142.57;62.93;59816.97;5053463;28;20123;-85
2023/10/01 00:05:08;;;;;;;19.00;6.97;;;;;;;-142.57;62.53;59905.94;5052729;28;20505;-84
2023/10/01 00:07:37;;;;;;;15.05;7.72;;;;;;;-142.57;63.29;59835.16;5051177;28;20033;-85
2023/10/01 00:10:12;;;;;;;14.82;7.55;;;;;;;-142.57;62.49;59922.13;5064753;28;20037;-83
2023/10/01 00:12:39;;;;;;;16.23;7.93;;;;;;;-142.57;63.37;59792.69;5052464;28;20040;-84
2023/10/01 00:15:06;;;;;;;15.75;7.95;;;;;;;-142.57;62.87;59922.13;5052157;28;20048;-84
2023/10/01 00:17:32;;;;;;;15.50;7.60;;;;;;;-142.57;62.33;59946.41;5049822;28;20042;-85
2023/10/01 00:20:00;;;;;;;18.13;8.00;;;;;;;-142.57;62.85;59845.28;5055191;28;20031;-85
2023/10/01 00:22:26;;;;;;;15.65;7.82;;;;;;;-142.57;62.23;59885.72;5073263;28;20013;-86
2023/10/01 00:24:52;;;;;;;12.50;6.82;;;;;;;-142.57;61.84;59964.59;5079702;28;20060;-85
2023/10/01 00:27:17;;;;;;;12.93;7.53;;;;;;;-142.57;62.26;59910.00;5078518;28;20094;-85
2023/10/01 00:29:43;;;;;;;13.40;7.55;;;;;;;-142.57;62.75;59798.75;5077943;28;20084;-84
2023/10/01 00:32:09;;;;;;;19.55;7.55;;;;;;;-142.57;63.11;59812.91;5076382;28;20047;-86
2023/10/01 00:34:34;;;;;;;13.55;7.85;;;;;;;-142.57;63.37;59776.50;5059664;28;20037;-84
2023/10/01 00:37:00;;;;;;;16.13;8.32;;;;;;;-142.57;63.59;59723.91;5040348;28;20033;-84
2023/10/01 00:39:25;;;;;;;15.73;7.72;;;;;;;-142.57;65.27;59610.66;5035989;28;20033;-83
2023/10/01 00:41:51;;;;;;;12.95;7.15;;;;;;;-142.57;64.54;59663.25;5037299;28;20037;-84
2023/10/01 00:44:17;;;;;;;11.00;7.50;;;;;;;-142.57;63.91;59764.38;5049379;28;20115;-85
2023/10/01 00:46:43;;;;;;;15.25;7.07;;;;;;;-142.57;63.35;59780.56;5054818;28;20025;-84
2023/10/01 00:49:08;;;;;;;13.77;7.82;;;;;;;-142.57;63.52;59772.47;5056226;28;20517;-85
2023/10/01 00:51:34;;;;;;;16.48;8.45;;;;;;;-142.57;64.47;59685.50;5055379;28;20088;-84
2023/10/01 00:54:02;;;;;;;13.65;7.47;;;;;;;-142.57;64.16;59723.91;5052597;28;20033;-85
2023/10/01 00:56:28;;;;;;;12.20;7.50;;;;;;;-142.57;63.93;59707.75;5037534;28;20128;-84
2023/10/01 00:58:54;;;;;;;13.25;7.70;;;;;;;-142.57;63.93;59699.66;5035579;28;20558;-83
2023/10/01 01:01:23;;;;;;;21.50;7.85;;;;;;;-142.57;64.06;59687.50;5034500;28;20045;-85
2023/10/01 01:03:55;;;;;;;13.02;7.70;;;;;;;-142.57;64.00;59715.81;5036746;28;20083;-82
2023/10/01 01:06:24;;;;;;;14.98;7.13;;;;;;;-142.57;63.80;59736.06;5052649;28;20152;-84
2023/10/01 01:08:54;;;;;;;18.70;7.57;;;;;;;-142.57;63.54;59740.09;5056204;28;20501;-86
2023/10/01 01:11:21;;;;;;;19.23;8.20;;;;;;;-142.57;64.97;59711.78;5054978;28;20486;-83
2023/10/01 01:13:51;;;;;;;13.35;7.50;;;;;;;-142.57;64.66;59616.72;5055145;28;20120;-85
2023/10/01 01:16:20;;;;;;;13.73;8.02;;;;;;;-142.57;64.16;59651.09;5061884;28;20093;-84
2023/10/01 01:18:47;;;;;;;12.98;7.65;;;;;;;-142.57;64.58;59679.41;5076960;28;20033;-83
2023/10/01 01:21:13;;;;;;;16.02;7.80;;;;;;;-142.57;64.58;59574.25;5059684;28;20173;-84
2023/10/01 01:23:45;;;;;;;15.93;7.47;;;;;;;-142.57;65.52;59517.63;5035384;28;20034;-84
2023/10/01 01:26:14;;;;;;;11.48;7.50;;;;;;;-142.57;66.24;59436.72;5035061;28;20037;-83
2023/10/01 01:28:41;;;;;;;15.90;8.82;;;;;;;-142.57;65.88;59489.31;5039005;28;20129;-84
2023/10/01 01:31:10;;;;;;;14.68;8.73;;;;;;;-142.57;67.00;59367.97;5046017;28;20048;-84
2023/10/01 01:33:44;;;;;;;14.88;7.63;;;;;;;-142.57;66.98;59369.97;5055062;28;20093;-84
2023/10/01 01:36:12;;;;;;;17.38;7.95;;;;;;;-142.57;67.14;59367.97;5031385;28;20545;-84
2023/10/01 01:39:09;;;;;;;15.98;7.97;;;;;;;-142.57;67.49;59331.56;5034243;28;20439;-85
2023/10/01 01:41:42;;;;;;;15.90;7.88;;;;;;;-142.57;67.21;59367.97;5033428;28;20072;-84
2023/10/01 01:44:14;;;;;;;15.18;9.73;;;;;;;-142.57;67.78;59319.41;5043458;28;20082;-84
2023/10/01 01:46:47;;;;;;;17.57;7.90;;;;;;;-142.57;68.83;59210.22;5043354;28;20099;-86
2023/10/01 01:49:18;;;;;;;14.13;8.27;;;;;;;-142.57;69.45;59214.25;5053439;28;20318;-84
2023/10/01 01:51:57;;;;;;;22.55;8.23;;;;;;;-142.57;69.10;59287.06;5069752;28;20033;-84
2023/10/01 01:54:27;;;;;;;11.55;7.80;;;;;;;-142.57;68.08;59376.06;5052390;28;20130;-83
2023/10/01 01:56:55;;;;;;;14.25;8.38;;;;;;;-142.57;69.32;59260.78;5041375;28;20035;-85
2023/10/01 01:59:24;;;;;;;16.42;8.57;;;;;;;-142.57;68.81;59256.72;5015981;28;20060;-84
2023/10/01 02:01:55;;;;;;;13.45;8.32;;;;;;;-142.57;68.99;59236.50;5034811;28;20033;-83
2023/10/01 02:04:22;;;;;;;12.63;8.15;;;;;;;-142.57;67.99;59327.50;5034097;28;20069;-84
2023/10/01 02:06:50;;;;;;;15.48;8.45;;;;;;;-142.57;69.55;59185.94;5042211;28;20478;-84
2023/10/01 02:09:19;;;;;;;16.80;8.85;;;;;;;-142.57;70.86;59179.88;5033952;28;20064;-85
2023/10/01 02:11:49;;;;;;;19.88;9.52;;;;;;;-142.57;70.42;59129.31;5032363;28;20030;-84
2023/10/01 02:14:30;;;;;;;15.85;9.70;;;;;;;-142.57;71.15;59094.94;5032875;28;20029;-85
2023/10/01 02:17:15;;;;;;;19.88;9.48;;;;;;;-142.57;72.67;58999.91;5040843;28;20037;-84
2023/10/01 02:19:46;;;;;;;21.77;8.50;;;;;;;-142.57;72.37;58983.72;5054592;28;20513;-84
2023/10/01 02:22:13;;;;;;;16.27;9.00;;;;;;;-142.57;72.95;58947.31;5062362;28;20044;-84
2023/10/01 02:24:45;;;;;;;15.65;9.18;;;;;;;-142.57;73.84;58898.78;5060528;28;20025;-81
2023/10/01 02:27:16;;;;;;;20.30;8.87;;;;;;;-142.57;74.19;58906.88;5060525;28;20025;-83
2023/10/01 02:32:28;;;;;;;17.20;9.15;;;;;;;-142.57;74.47;58919.00;5053540;28;20041;-84
2023/10/01 02:34:57;;;;;;;20.67;8.35;;;;;;;-142.57;73.68;58906.88;5053255;28;20396;-85
2023/10/01 02:37:29;;;;;;;12.02;8.25;;;;;;;-142.57;73.80;58910.94;5038057;28;20025;-83
2023/10/01 02:39:59;;;;;;;21.88;8.60;;;;;;;-142.57;73.63;58888.69;5050571;28;20045;-84
2023/10/01 02:42:28;;;;;;;13.20;7.78;;;;;;;-142.57;73.72;58979.69;5051613;28;20378;-84
2023/10/01 02:44:54;;;;;;;17.17;7.70;;;;;;;-142.57;72.64;59048.44;5033756;28;20049;-84
2023/10/01 02:47:20;;;;;;;14.80;8.23;;;;;;;-142.57;72.12;58999.91;5033832;28;20510;-83
2023/10/01 02:49:51;;;;;;;15.95;7.35;;;;;;;-142.57;72.08;59056.53;5038676;28;20451;-84
2023/10/01 02:52:36;;;;;;;13.57;7.65;;;;;;;-142.57;71.34;59123.25;5038736;28;20030;-84
2023/10/01 02:55:26;;;;;;;13.60;7.47;;;;;;;-142.57;70.92;59125.28;5038277;28;20041;-85
2023/10/01 02:57:52;;;;;;;12.55;7.38;;;;;;;-142.57;72.17;59084.84;5053327;28;20040;-83
2023/10/01 03:02:53;;;;;;;14.15;8.15;;;;;;;-142.57;74.18;58896.78;5054943;28;20137;-84
2023/10/01 03:07:52;;;;;;;9.40;7.30;;;;;;;-142.57;73.19;58949.34;5046645;28;20037;-85
2023/10/01 03:10:25;;;;;;;11.23;7.53;;;;;;;-142.57;73.37;58943.28;5051452;28;20091;-85
2023/10/01 03:12:56;;;;;;;14.15;7.70;;;;;;;-142.57;72.53;58987.75;5035501;28;20108;-83
2023/10/01 03:15:25;;;;;;;15.25;7.78;;;;;;;-142.57;71.55;59024.16;5051869;28;20065;-85
2023/10/01 03:17:57;;;;;;;12.65;7.28;;;;;;;-142.57;70.81;59054.50;5053262;28;20431;-85
2023/10/01 03:23:36;;;;;;;14.85;7.18;;;;;;;-142.57;70.69;59076.75;5052887;28;20454;-87
2023/10/01 03:26:10;;;;;;;11.93;7.60;;;;;;;-142.57;70.70;59048.44;5052559;28;20502;-86
2023/10/01 03:31:23;;;;;;;9.45;6.80;;;;;;;-142.57;69.94;59137.41;5051044;28;20132;-84
2023/10/01 03:33:53;;;;;;;11.40;7.03;;;;;;;-142.57;70.67;59040.34;5053199;28;20131;-89
2023/10/01 03:36:28;;;;;;;14.63;8.02;;;;;;;-142.57;71.90;58963.50;5056230;28;20513;-87
2023/10/01 03:38:59;;;;;;;11.95;7.53;;;;;;;-142.57;71.70;58953.38;5055354;28;20512;-86
2023/10/01 03:41:27;;;;;;;10.32;7.32;;;;;;;-142.57;71.96;58995.84;5042344;28;20084;-86
2023/10/01 03:43:56;;;;;;;12.85;7.35;;;;;;;-142.57;71.20;59003.94;5037172;28;20049;-86
2023/10/01 03:54:26;;;;;;;12.88;7.70;;;;;;;-142.57;71.20;58979.69;5056663;28;20410;-85
2023/10/01 03:56:58;;;;;;;13.43;7.75;;;;;;;-142.57;71.65;59016.06;5056563;28;20069;-86
2023/10/01 03:59:32;;;;;;;14.88;8.45;;;;;;;-142.57;72.17;58931.16;5053504;28;20128;-86
2023/10/01 04:01:58;;;;;;;12.52;8.10;;;;;;;-142.57;72.31;58945.31;5054158;28;20085;-85
2023/10/01 04:04:28;;;;;;;15.20;8.23;;;;;;;-142.57;72.29;58931.16;5051549;28;20025;-85
2023/10/01 04:06:56;;;;;;;17.33;8.38;;;;;;;-142.57;73.07;58888.69;5035502;28;20391;-84
2023/10/01 04:09:26;;;;;;;18.48;9.20;;;;;;;-142.57;74.96;58801.72;5035035;28;20029;-85
2023/10/01 04:12:05;;;;;;;15.25;8.10;;;;;;;-142.57;74.26;58888.69;5054440;28;20100;-84
2023/10/01 04:14:31;;;;;;;14.70;8.70;;;;;;;-142.57;73.50;58943.28;5056264;28;20059;-84
2023/10/01 04:16:57;;;;;;;13.23;8.65;;;;;;;-142.57;73.06;58947.31;5054512;28;20547;-85
2023/10/01 04:19:24;;;;;;;17.05;9.57;;;;;;;-142.57;73.00;58902.84;5053935;28;20390;-87
2023/10/01 04:21:53;;;;;;;12.88;8.63;;;;;;;-142.57;73.13;58939.22;5045736;28;20033;-83
2023/10/01 04:24:21;;;;;;;13.10;7.85;;;;;;;-142.57;72.71;58979.69;5036941;28;20475;-87
2023/10/01 04:26:47;;;;;;;16.02;8.60;;;;;;;-142.57;72.74;58971.59;5037530;28;20045;-88
2023/10/01 04:29:16;;;;;;;14.27;9.27;;;;;;;-142.57;74.39;58817.91;5035398;28;20045;-88
2023/10/01 04:31:52;;;;;;;16.75;8.82;;;;;;;-142.57;76.06;58686.47;5051981;28;20386;-87
2023/10/01 04:34:19;;;;;;;12.80;8.45;;;;;;;-142.57;76.13;58627.84;5056191;28;20094;-85
2023/10/01 04:36:50;;;;;;;21.65;9.40;;;;;;;-142.57;77.31;58627.84;5057579;28;20033;-86
2023/10/01 04:39:37;;;;;;;12.50;8.98;;;;;;;-142.57;77.95;58591.44;5056523;28;20033;-90
2023/10/01 04:42:03;;;;;;;15.50;9.77;;;;;;;-142.57;78.35;58540.88;5049652;28;20041;-86
2023/10/01 04:44:30;;;;;;;16.20;11.05;;;;;;;-142.57;78.46;58591.44;5055865;28;20032;-87
2023/10/01 04:47:24;;;;;;;14.57;9.85;;;;;;;-142.57;79.81;58482.25;5053618;28;20020;-84
2023/10/01 04:49:46;;;;;;;21.05;9.55;;;;;;;-142.57;80.44;58522.69;5055221;28;20486;-82
2023/10/01 04:52:12;;;;;;;21.10;10.98;;;;;;;-142.57;80.12;58573.25;5048526;28;20382;-85
2023/10/01 04:54:39;;;;;;;21.73;11.52;;;;;;;-142.57;81.34;58524.72;5055018;28;20037;-84
2023/10/01 04:57:06;;;;;;;20.92;10.88;;;;;;;-142.57;81.52;58482.25;5055237;28;20041;-85
2023/10/01 04:59:32;;;;;;;22.15;11.05;;;;;;;-142.57;81.39;58512.56;5055165;28;20041;-84
2023/10/01 05:01:58;;;;;;;23.58;11.60;;;;;;;-142.57;81.85;58490.34;5045468;28;20029;-87
2023/10/01 05:04:25;;;;;;;19.50;11.75;;;;;;;-142.57;82.16;58498.44;5035241;28;20033;-87
2023/10/01 05:07:10;;;;;;;23.55;11.88;;;;;;;-142.57;81.65;58500.44;5034703;28;20064;-86
2023/10/01 05:09:36;;;;;;;16.35;10.85;;;;;;;-142.57;82.41;58530.78;5035590;28;20029;-85
2023/10/01 05:12:03;;;;;;;18.33;10.57;;;;;;;-142.57;81.49;58571.22;5035934;28;20036;-88
2023/10/01 05:14:29;;;;;;;16.05;11.43;;;;;;;-142.57;81.48;58502.47;5044751;28;20026;-84
2023/10/01 05:16:55;;;;;;;22.95;12.13;;;;;;;-142.57;83.56;58441.81;5054787;28;20034;-88
2023/10/01 05:19:29;;;;;;;29.23;11.88;;;;;;;-142.57;83.54;58468.09;5037609;28;20371;-87
2023/10/01 05:21:56;;;;;;;20.48;12.10;;;;;;;-142.57;84.11;58393.28;5035888;28;20351;-88
2023/10/01 05:24:36;;;;;;;27.48;12.65;;;;;;;-142.57;83.69;58451.91;5066373;28;20020;-89
2023/10/01 05:27:18;;;;;;;23.90;11.70;;;;;;;-142.57;84.04;58468.09;5069169;28;20033;-90
2023/10/01 05:29:45;;;;;;;23.15;12.82;;;;;;;-142.57;82.93;58555.03;5051241;28;20139;-87
2023/10/01 05:32:13;;;;;;;21.33;11.65;;;;;;;-142.57;82.72;58563.13;5037743;28;20091;-88
2023/10/01 05:34:45;;;;;;;28.60;12.32;;;;;;;-142.57;82.78;58567.16;5055238;28;20033;-88
2023/10/01 05:37:20;;;;;;;23.33;12.63;;;;;;;-142.57;83.56;58567.16;5037977;28;20452;-87
2023/10/01 05:39:56;;;;;;;28.55;13.15;;;;;;;-142.57;82.32;58648.06;5053398;28;20036;-86
2023/10/01 05:42:25;;;;;;;24.90;11.82;;;;;;;-142.57;81.46;58712.75;5044292;28;20116;-88
2023/10/01 05:44:55;;;;;;;29.98;13.23;;;;;;;-142.57;79.14;58826.00;5037060;28;20406;-86
2023/10/01 05:47:22;;;;;;;25.38;13.68;;;;;;;-142.57;78.73;58917.00;5035683;28;20490;-85
2023/10/01 05:49:49;;;;;;;26.38;13.27;;;;;;;-142.57;77.64;58943.28;5035834;28;20045;-84
2023/10/01 05:52:17;;;;;;;23.77;12.68;;;;;;;-142.57;76.38;58985.75;5047940;28;20029;-83
2023/10/01 05:54:52;;;;;;;23.88;12.98;;;;;;;-142.57;76.61;59024.16;5040796;28;20087;-87
2023/10/01 05:57:21;;;;;;;25.30;12.85;;;;;;;-142.57;76.31;59016.06;5033049;28;20037;-84
2023/10/01 05:59:56;;;;;;;19.08;12.52;;;;;;;-142.57;76.66;58991.81;5035298;28;20097;-84
2023/10/01 06:02:47;;;;;;;18.50;11.70;;;;;;;-142.57;75.50;59018.09;5036003;28;20119;-83
2023/10/01 06:05:25;;;;;;;19.75;11.55;;;;;;;-142.57;75.37;58914.97;5058193;28;20032;-81
2023/10/01 06:07:54;;;;;;;22.38;10.85;;;;;;;-142.57;73.70;59008.00;5056988;28;20434;-85
2023/10/01 06:10:19;;;;;;;22.23;10.20;;;;;;;-142.57;72.44;59084.84;5073691;28;20032;-84
2023/10/01 06:12:50;;;;;;;18.35;8.80;;;;;;;-142.57;70.20;59287.06;5059773;28;20389;-86
2023/10/01 06:15:20;;;;;;;16.50;8.93;;;;;;;-142.57;64.39;59556.03;5057107;28;20548;-86
2023/10/01 06:17:49;;;;;;;11.38;7.55;;;;;;;-142.57;61.43;59910.00;5036983;28;20047;-84
2023/10/01 06:20:24;;;;;;;14.48;7.10;;;;;;;-142.57;58.44;59994.94;5039692;28;20073;-84
2023/10/01 06:22:49;;;;;;;14.18;6.75;;;;;;;-142.57;55.76;60302.41;5040424;28;20021;-86
2023/10/01 06:25:15;;;;;;;17.60;7.03;;;;;;;-142.57;54.01;60472.34;5041801;28;20029;-86
2023/10/01 06:27:41;;;;;;;10.90;7.07;;;;;;;-142.57;52.59;60670.59;5058132;28;20136;-88
2023/10/01 06:30:09;;;;;;;11.23;5.80;;;;;;;-142.57;50.88;61188.53;5057821;28;20029;-86
2023/10/01 06:32:36;;;;;;;10.23;6.40;;;;;;;-142.57;53.11;60933.59;5056380;28;20064;-88
2023/10/01 06:35:03;;;;;;;15.45;6.40;;;;;;;-142.57;51.29;60842.56;5056228;28;20483;-87
2023/10/01 06:37:50;;;;;;;12.63;6.38;;;;;;;-142.57;54.18;60407.59;5053562;28;20029;-90
2023/10/01 06:40:31;;;;;;;14.88;6.72;;;;;;;-142.57;54.84;60512.81;5058651;28;20045;-87
2023/10/01 06:42:59;;;;;;;15.20;7.47;;;;;;;-142.57;50.60;61103.56;5057159;28;20101;-89
2023/10/01 06:45:42;;;;;;;11.90;6.57;;;;;;;-142.57;50.16;61249.22;5056326;28;20500;-87
2023/10/01 06:48:15;;;;;;;15.18;6.57;;;;;;;-142.57;49.40;61283.63;5045772;28;20041;-84
2023/10/01 06:50:44;;;;;;;11.55;6.63;;;;;;;-142.57;48.21;61494.06;5040388;28;20033;-92
2023/10/01 06:53:13;;;;;;;10.05;6.80;;;;;;;-142.57;49.14;61512.28;5035762;28;20032;-89
2023/10/01 06:55:39;;;;;;;11.43;7.25;;;;;;;-142.57;49.03;61572.97;5036064;28;20550;-87
2023/10/01 06:58:08;;;;;;;17.23;7.20;;;;;;;-142.57;47.07;61884.63;5036285;28;20502;-87
2023/10/01 07:00:35;;;;;;;13.18;7.10;;;;;;;-142.57;45.74;62285.31;5034307;28;20056;-88
2023/10/01 07:03:21;;;;;;;15.25;7.72;;;;;;;-142.57;45.41;62528.19;5032890;28;20063;-87
2023/10/01 07:05:51;;;;;;;17.05;9.70;;;;;;;-142.57;45.82;62309.59;5034093;28;20394;-86
2023/10/01 07:08:18;;;;;;;20.60;10.25;;;;;;;-142.57;45.92;62528.19;5024232;28;20029;-90
2023/10/01 07:10:50;;;;;;;19.45;12.15;;;;;;;-142.57;48.28;62180.09;5033432;28;20040;-88
2023/10/01 07:13:17;;;;;;;20.85;12.00;;;;;;;-142.57;49.64;61961.50;5053796;28;20041;-88
2023/10/01 07:15:48;;;;;;;24.00;13.85;;;;;;;-142.57;48.69;62289.38;5055298;28;20059;-90
2023/10/01 07:18:15;;;;;;;27.88;17.88;;;;;;;-142.57;51.02;62074.84;5055806;28;20044;-87
2023/10/01 07:20:49;;;;;;;34.50;21.70;;;;;;;-142.57;52.46;62062.69;5051740;28;20036;-89
2023/10/01 07:23:21;;;;;;;34.75;21.77;;;;;;;-142.57;54.58;61896.75;5052982;28;20048;-90
2023/10/01 07:25:49;;;;;;;31.23;21.73;;;;;;;-142.57;54.25;62036.41;5053147;28;20498;-87
2023/10/01 07:28:18;;;;;;;37.00;22.30;;;;;;;-142.57;52.53;62485.69;5052741;28;20029;-91
2023/10/01 07:30:51;;;;;;;36.35;22.55;;;;;;;-142.57;50.62;62783.22;5051840;28;20028;-88
2023/10/01 07:33:18;;;;;;;30.70;21.77;;;;;;;-142.57;51.35;62653.69;5057101;28;20037;-86
2023/10/01 07:35:45;;;;;;;33.17;22.15;;;;;;;-142.57;52.15;62580.81;5060466;28;20033;-90
2023/10/01 07:38:15;;;;;;;38.05;23.45;;;;;;;-142.57;53.50;62455.34;5056313;28;20067;-84
2023/10/01 07:40:57;;;;;;;37.95;24.40;;;;;;;-142.57;50.92;62933.03;5055630;28;20020;-83
2023/10/01 07:43:27;;;;;;;38.33;25.33;;;;;;;-142.57;50.92;62955.28;5049567;28;20494;-85
2023/10/01 07:46:02;;;;;;;42.53;24.60;;;;;;;-142.57;48.04;63726.59;5038740;28;20029;-86
2023/10/01 07:48:29;;;;;;;41.67;25.52;;;;;;;-142.57;45.96;64103.19;5047781;28;20044;-87
2023/10/01 07:50:56;;;;;;;35.20;26.70;;;;;;;-142.57;45.20;64192.28;5069968;22;20048;-84
2023/10/01 07:53:33;;;;;;;34.50;26.52;;;;;;;-142.57;43.49;64647.91;5044978;28;20036;-82
2023/10/01 07:56:01;;;;;;;48.28;28.63;;;;;;;-142.57;42.79;65012.44;5041240;28;20033;-81
2023/10/01 07:58:45;;;;;;;42.40;28.55;;;;;;;-142.57;41.74;65261.53;5051864;28;20486;-82
2023/10/01 08:06:49;;;;;;;40.58;24.67;;;;;;;-142.57;39.97;65901.63;4710062;26;20395;-83
2023/10/01 08:09:17;;;;;;;44.60;26.63;;;;;;;-142.57;40.29;65715.25;4996746;28;20062;-85
2023/10/01 08:11:58;;;;;;;41.72;27.42;;;;;;;-142.57;41.63;65204.81;5015621;28;20041;-87
2023/10/01 08:14:33;;;;;;;44.08;27.73;;;;;;;-142.57;42.65;64834.19;5015024;28;20553;-86
2023/10/01 08:17:05;;;;;;;40.90;25.77;;;;;;;-142.57;40.80;65460.03;5014136;28;20037;-84
2023/10/01 08:19:49;;;;;;;38.50;26.80;;;;;;;-142.57;42.07;65038.75;4994921;28;20061;-82
2023/10/01 08:22:23;;;;;;;40.10;27.23;;;;;;;-142.57;41.85;65140.03;5011593;28;20044;-85
2023/10/01 08:24:49;;;;;;;37.28;27.02;;;;;;;-142.57;40.69;65589.66;5010724;28;20038;-79
2023/10/01 08:27:32;;;;;;;36.00;27.95;;;;;;;-142.57;39.91;65674.75;5019010;28;20029;-82
2023/10/01 08:30:18;;;;;;;;;;;;;;;-142.57;39.21;65857.06;5015226;28;20050;-79
2023/10/01 08:32:49;;;;;;;40.65;26.85;;;;;;;-142.57;39.86;65844.91;5011292;28;20000;-83
2023/10/01 08:35:23;;;;;;;;;;;;;;;-142.57;40.79;65387.13;5006972;28;20084;-82
2023/10/01 08:37:49;;;;;;;44.08;27.50;;;;;;;-142.57;41.38;65344.59;5015272;28;19925;-87
2023/10/01 08:40:17;;;;;;;41.65;27.15;;;;;;;-142.57;41.29;65198.75;5016609;28;20100;-87
2023/10/01 08:48:07;;;;;;;39.17;26.17;;;;;;;-142.57;39.03;66205.47;5206804;23;20541;-88
2023/10/01 08:50:40;;;;;;;42.72;24.30;;;;;;;-142.57;38.36;66343.25;5009987;28;20054;-88
